M I D A S
Marine Information and Data Acquisition System
Tripno 1864 of the Zeeleeuw from 2010-04-23 06:30:26 to 2010-04-23 15:38:00
Back to CruiseResearch ActivitiesStationsMapUnderway DataData graphs

EquipmentUnitsComment
TimeDGPSUTC
LatitudeDGPSDM.mWGS84
LongitudeDGPSDM.mWGS84
HeadingGyrodeg 
SOGDGPSknotsSpeed over ground
COGDGPSdegCourse over ground
DepthEcho soundermeters200 kHz
Missing or incorrect values are displayed as -999
Navigation data collected by the RV Zeeleeuw from 2010-04-23 06:21:22 to 2010-04-23 16:16:10
                                                                                    Next 1000 lines
Time Latitude Longitude Heading SOG COG Depth
2010-04-23 06:21:32 51°13.661 2°55.957 109.9 0.9 293 8.6
2010-04-23 06:21:37 51°13.662 2°55.955 109.6 1.2 295 8.6
2010-04-23 06:21:42 51°13.663 2°55.952 109.3 1.5 293 8.6
2010-04-23 06:21:47 51°13.664 2°55.948 109 1.8 293 8.8
2010-04-23 06:21:52 51°13.665 2°55.944 108.8 2.1 293 8.9
2010-04-23 06:21:57 51°13.667 2°55.939 108.7 2.3 292 5
2010-04-23 06:22:03 51°13.668 2°55.934 108.6 2.5 293 -999
2010-04-23 06:22:09 51°13.67 2°55.927 108.6 2.7 292 -999
2010-04-23 06:22:14 51°13.672 2°55.921 108.4 2.9 292 -999
2010-04-23 06:22:20 51°13.673 2°55.914 108.2 3 291 -999
2010-04-23 06:22:25 51°13.675 2°55.908 107.7 3.1 290 -999
2010-04-23 06:22:31 51°13.677 2°55.9 107 3.2 289 -999
2010-04-23 06:22:36 51°13.678 2°55.893 106.5 3.2 288 -999
2010-04-23 06:22:41 51°13.679 2°55.886 105.9 3.3 287 -999
2010-04-23 06:22:45 51°13.68 2°55.88 105.3 3.3 287 -999
2010-04-23 06:22:51 51°13.682 2°55.872 104.7 3.3 286 -999
2010-04-23 06:22:56 51°13.683 2°55.864 104.1 3.3 286 -999
2010-04-23 06:23:01 51°13.684 2°55.857 103.3 3.4 284 -999
2010-04-23 06:23:06 51°13.686 2°55.85 102.4 3.4 284 -999
2010-04-23 06:23:11 51°13.686 2°55.843 101.1 3.4 282 -999
2010-04-23 06:23:16 51°13.687 2°55.835 99.8 3.4 282 -999
2010-04-23 06:23:21 51°13.688 2°55.828 98.5 3.3 280 -999
2010-04-23 06:23:26 51°13.688 2°55.821 97.1 3.4 279 -999
2010-04-23 06:23:31 51°13.689 2°55.814 95.7 3.4 278 -999
2010-04-23 06:23:36 51°13.689 2°55.806 94.3 3.3 276 -999
2010-04-23 06:23:41 51°13.69 2°55.799 92.9 3.2 275 -999
2010-04-23 06:23:46 51°13.69 2°55.793 91.5 3.1 274 -999
2010-04-23 06:23:51 51°13.691 2°55.786 90.3 2.9 274 -999
2010-04-23 06:23:56 51°13.691 2°55.781 89.3 2.4 274 -999
2010-04-23 06:24:01 51°13.691 2°55.778 87.8 1.3 277 -999
2010-04-23 06:24:06 51°13.69 2°55.777 84.3 0.6 277 -999
2010-04-23 06:24:11 51°13.691 2°55.776 79.3 0.6 298 -999
2010-04-23 06:24:16 51°13.691 2°55.776 73.5 0.3 292 -999
2010-04-23 06:24:21 51°13.691 2°55.775 68.2 0.4 329 -999
2010-04-23 06:24:26 51°13.692 2°55.775 63.9 0.3 2 -999
2010-04-23 06:24:31 51°13.692 2°55.776 59.8 0.4 8 -999
2010-04-23 06:24:36 51°13.692 2°55.776 55.8 0.4 15 -999
2010-04-23 06:24:41 51°13.693 2°55.776 52.2 0.4 2 -999
2010-04-23 06:24:46 51°13.693 2°55.776 49.3 0.2 326 -999
2010-04-23 06:24:51 51°13.693 2°55.776 46.8 0.3 261 -999
2010-04-23 06:24:56 51°13.693 2°55.774 44 0.6 248 -999
2010-04-23 06:25:01 51°13.692 2°55.773 41.8 0.8 231 -999
2010-04-23 06:25:06 51°13.692 2°55.771 39.9 1 232 -999
2010-04-23 06:25:11 51°13.691 2°55.769 37.8 1.2 225 -999
2010-04-23 06:25:16 51°13.69 2°55.766 36.1 1.2 227 -999
2010-04-23 06:25:21 51°13.689 2°55.764 34.8 1 226 -999
2010-04-23 06:25:25 51°13.689 2°55.763 33.6 0.6 247 5.7
2010-04-23 06:25:30 51°13.689 2°55.763 32.5 0.2 329 5.8
2010-04-23 06:25:36 51°13.69 2°55.763 29.1 0.8 352 -999
2010-04-23 06:25:41 51°13.692 2°55.763 22.4 1.2 3 -999
2010-04-23 06:25:45 51°13.694 2°55.763 14.3 1.6 359 -999
2010-04-23 06:25:51 51°13.697 2°55.763 8.4 1.8 354 -999
2010-04-23 06:25:56 51°13.699 2°55.762 0.2 2.1 348 -999
2010-04-23 06:26:01 51°13.703 2°55.761 353.6 2.5 343 -999
2010-04-23 06:26:06 51°13.707 2°55.759 346.3 3 338 -999
2010-04-23 06:26:11 51°13.71 2°55.755 338.4 3.2 330 -999
2010-04-23 06:26:16 51°13.714 2°55.75 332.4 3.5 328 -999
2010-04-23 06:26:21 51°13.718 2°55.746 329.4 3.9 326 -999
2010-04-23 06:26:26 51°13.724 2°55.741 328.2 4.2 326 -999
2010-04-23 06:26:31 51°13.729 2°55.735 328 4.6 327 -999
2010-04-23 06:26:36 51°13.735 2°55.729 328 4.8 326 -999
2010-04-23 06:26:41 51°13.741 2°55.723 327.8 5.1 326 -999
2010-04-23 06:26:46 51°13.748 2°55.717 327.3 5.4 325 -999
2010-04-23 06:26:50 51°13.753 2°55.711 326.8 5.6 326 13.8
2010-04-23 06:26:56 51°13.761 2°55.704 327 5.8 327 -999
2010-04-23 06:27:01 51°13.768 2°55.697 328.2 5.9 327 -999
2010-04-23 06:27:05 51°13.773 2°55.69 328.7 5.9 328 -999
2010-04-23 06:27:11 51°13.781 2°55.682 329.7 5.9 329 -999
2010-04-23 06:27:16 51°13.788 2°55.675 331.2 5.9 330 -999
2010-04-23 06:27:21 51°13.795 2°55.669 332.7 5.9 332 -999
2010-04-23 06:27:25 51°13.801 2°55.664 333.9 6 333 -999
2010-04-23 06:27:31 51°13.81 2°55.657 335.9 6.1 335 -999
2010-04-23 06:27:36 51°13.818 2°55.651 337.2 6.2 336 -999
2010-04-23 06:27:41 51°13.826 2°55.645 337.8 6.3 337 -999
2010-04-23 06:27:46 51°13.834 2°55.64 338.3 6.4 338 -999
2010-04-23 06:27:51 51°13.842 2°55.634 339.1 6.4 338 -999
2010-04-23 06:27:56 51°13.85 2°55.629 339.9 6.5 339 -999
2010-04-23 06:28:01 51°13.859 2°55.624 340.5 6.6 339 -999
2010-04-23 06:28:06 51°13.867 2°55.619 340.5 6.6 340 -999
2010-04-23 06:28:11 51°13.875 2°55.613 340.5 6.7 341 -999
2010-04-23 06:28:16 51°13.884 2°55.609 340.5 6.7 340 -999
2010-04-23 06:28:21 51°13.893 2°55.604 341 6.7 341 -999
2010-04-23 06:28:26 51°13.901 2°55.598 341.5 6.8 341 -999
2010-04-23 06:28:31 51°13.911 2°55.594 341.9 6.8 341 -999
2010-04-23 06:28:36 51°13.92 2°55.59 342.3 6.8 341 -999
2010-04-23 06:28:41 51°13.929 2°55.585 342.3 6.8 341 -999
2010-04-23 06:28:46 51°13.938 2°55.581 342.5 6.8 342 -999
2010-04-23 06:28:50 51°13.945 2°55.577 342.6 6.8 342 13.6
2010-04-23 06:28:56 51°13.956 2°55.572 342.5 6.8 342 -999
2010-04-23 06:29:01 51°13.965 2°55.567 342.5 6.8 341 -999
2010-04-23 06:29:05 51°13.972 2°55.563 342.5 6.8 341 13.5
2010-04-23 06:29:10 51°13.981 2°55.558 341.9 6.9 339 13.5
2010-04-23 06:29:16 51°13.992 2°55.551 341.2 7.1 338 13.4
2010-04-23 06:29:21 51°14.001 2°55.544 340.1 7.2 336 13.7
2010-04-23 06:29:25 51°14.009 2°55.539 339 7.4 335 13.4
2010-04-23 06:29:30 51°14.018 2°55.532 338 7.6 334 13.4
2010-04-23 06:29:35 51°14.028 2°55.524 337.1 7.8 334 13.4
2010-04-23 06:29:41 51°14.039 2°55.514 336.4 8.1 334 13.9
2010-04-23 06:29:45 51°14.047 2°55.507 335.9 8.3 333 13.6
2010-04-23 06:29:50 51°14.058 2°55.499 335.4 8.6 333 13.4
2010-04-23 06:29:55 51°14.068 2°55.489 334.9 8.9 331 13.4
2010-04-23 06:30:00 51°14.08 2°55.48 334.1 9.2 332 13.3
2010-04-23 06:30:05 51°14.091 2°55.47 333.6 9.3 331 13.3
2010-04-23 06:30:10 51°14.103 2°55.46 333.2 9.6 331 -999
2010-04-23 06:30:15 51°14.115 2°55.45 332.9 9.8 331 13.3
2010-04-23 06:30:21 51°14.129 2°55.437 332.8 10 331 13.3
2010-04-23 06:30:25 51°14.139 2°55.428 333.1 10.2 331 -999
2010-04-23 06:30:31 51°14.154 2°55.415 333 10.4 330 -999
2010-04-23 06:30:36 51°14.167 2°55.404 332.8 10.6 332 -999
2010-04-23 06:30:41 51°14.18 2°55.392 332.4 10.8 329 -999
2010-04-23 06:30:45 51°14.19 2°55.382 331.5 10.9 330 13.3
2010-04-23 06:30:50 51°14.203 2°55.369 331.5 11.1 329 13.4
2010-04-23 06:30:55 51°14.217 2°55.356 331.1 11.3 328 13.3
2010-04-23 06:31:01 51°14.233 2°55.341 330.5 11.4 329 13.3
2010-04-23 06:31:05 51°14.244 2°55.331 330.5 11.5 327 13.1
2010-04-23 06:31:10 51°14.258 2°55.316 329.6 11.6 326 12.6
2010-04-23 06:31:15 51°14.271 2°55.302 328.7 11.7 328 12.9
2010-04-23 06:31:20 51°14.285 2°55.288 329.4 11.9 327 12.9
2010-04-23 06:31:25 51°14.298 2°55.272 329.5 12 326 13.1
2010-04-23 06:31:30 51°14.312 2°55.257 328.2 12.2 324 13.3
2010-04-23 06:31:35 51°14.326 2°55.241 327.2 12.4 326 13.3
2010-04-23 06:31:40 51°14.34 2°55.225 327.5 12.6 324 13.2
2010-04-23 06:31:45 51°14.354 2°55.209 327.5 12.7 325 13.2
2010-04-23 06:31:50 51°14.37 2°55.195 327.5 12.8 324 13
2010-04-23 06:31:55 51°14.385 2°55.179 327.3 12.9 326 12.8
2010-04-23 06:32:00 51°14.4 2°55.161 327.3 13 324 13
2010-04-23 06:32:05 51°14.414 2°55.144 327.2 13.1 326 13.4
2010-04-23 06:32:09 51°14.425 2°55.13 327.4 13.2 323 13.3
2010-04-23 06:32:14 51°14.44 2°55.112 326.3 13.4 325 13.2
2010-04-23 06:32:19 51°14.455 2°55.096 326.5 13.4 325 13.5
2010-04-23 06:32:24 51°14.47 2°55.078 326 13.5 324 13.7
2010-04-23 06:32:29 51°14.486 2°55.061 324.8 13.6 325 13.6
2010-04-23 06:32:34 51°14.501 2°55.044 324.8 13.6 325 13.6
2010-04-23 06:32:39 51°14.517 2°55.027 324.3 13.7 327 13.6
2010-04-23 06:32:44 51°14.533 2°55.011 324.4 13.7 327 13.9
2010-04-23 06:32:49 51°14.55 2°54.995 324.3 13.7 325 14.2
2010-04-23 06:32:53 51°14.562 2°54.979 321.7 13.7 321 14.1
2010-04-23 06:32:59 51°14.579 2°54.956 318.9 13.8 322 14.2
2010-04-23 06:33:04 51°14.594 2°54.937 318.3 13.8 320 14.1
2010-04-23 06:33:09 51°14.608 2°54.917 317.6 13.9 320 13.9
2010-04-23 06:33:13 51°14.62 2°54.901 317.3 14 321 14.1
2010-04-23 06:33:18 51°14.635 2°54.881 317.4 14 320 14.3
2010-04-23 06:33:24 51°14.653 2°54.858 317.3 14 320 14
2010-04-23 06:33:29 51°14.668 2°54.838 317.3 14.1 320 14.5
2010-04-23 06:33:33 51°14.68 2°54.822 317.3 14.1 320 14.6
2010-04-23 06:33:38 51°14.694 2°54.802 317 14.1 320 14.4
2010-04-23 06:33:43 51°14.71 2°54.782 316.9 14.1 320 14.5
2010-04-23 06:33:49 51°14.727 2°54.757 317.2 14.1 319 14.5
2010-04-23 06:33:53 51°14.74 2°54.742 316.4 14.1 319 14
2010-04-23 06:33:58 51°14.755 2°54.722 316.2 14.1 319 14.3
2010-04-23 06:34:03 51°14.77 2°54.701 316 14 319 14.6
2010-04-23 06:34:08 51°14.784 2°54.681 315.8 14 319 13.7
2010-04-23 06:34:13 51°14.799 2°54.66 315.6 14 319 12.8
2010-04-23 06:34:18 51°14.812 2°54.639 315.7 14 320 12.7
2010-04-23 06:34:22 51°14.825 2°54.624 316.4 14 320 12
2010-04-23 06:34:28 51°14.842 2°54.6 317.1 14 320 13.9
2010-04-23 06:34:33 51°14.857 2°54.581 317.8 14.1 321 13.9
2010-04-23 06:34:37 51°14.869 2°54.565 318.1 14.1 321 14
2010-04-23 06:34:42 51°14.885 2°54.546 318.7 14.1 322 13.9
2010-04-23 06:34:47 51°14.901 2°54.527 319.4 14.1 323 13.8
2010-04-23 06:34:52 51°14.917 2°54.509 320 14.1 323 14
2010-04-23 06:34:57 51°14.933 2°54.491 320.6 14.1 324 14.4
2010-04-23 06:35:02 51°14.949 2°54.473 321.2 14.1 324 13.8
2010-04-23 06:35:07 51°14.964 2°54.454 321.3 14.1 324 13.9
2010-04-23 06:35:12 51°14.981 2°54.436 321.6 14.1 325 12.4
2010-04-23 06:35:17 51°14.997 2°54.418 322 14.1 325 12.3
2010-04-23 06:35:22 51°15.013 2°54.402 323.4 14.1 329 12.3
2010-04-23 06:35:27 51°15.029 2°54.385 325.2 14.1 328 12.4
2010-04-23 06:35:32 51°15.045 2°54.369 327.2 14.2 332 12.6
2010-04-23 06:35:37 51°15.064 2°54.356 328.4 14.2 332 12.4
2010-04-23 06:35:42 51°15.081 2°54.343 330.2 14.2 334 12.5
2010-04-23 06:35:47 51°15.099 2°54.329 331.5 14.2 334 12.5
2010-04-23 06:35:52 51°15.118 2°54.315 332.5 14.3 336 12.6
2010-04-23 06:35:57 51°15.136 2°54.303 333.3 14.4 336 12.7
2010-04-23 06:36:02 51°15.154 2°54.29 333.7 14.4 336 12.7
2010-04-23 06:36:07 51°15.173 2°54.278 334.5 14.3 337 12.6
2010-04-23 06:36:12 51°15.191 2°54.265 334.7 14.3 338 12.8
2010-04-23 06:36:17 51°15.209 2°54.253 335.2 14.3 337 12.8
2010-04-23 06:36:22 51°15.227 2°54.24 334.7 14.3 336 12.5
2010-04-23 06:36:27 51°15.245 2°54.227 333.8 14.3 335 12.7
2010-04-23 06:36:32 51°15.263 2°54.213 333 14.2 334 12.8
2010-04-23 06:36:37 51°15.28 2°54.2 332.3 14.2 334 12.5
2010-04-23 06:36:42 51°15.298 2°54.185 331.7 14.2 333 12.6
2010-04-23 06:36:47 51°15.315 2°54.171 330.9 14.2 333 12.7
2010-04-23 06:36:52 51°15.332 2°54.156 330.6 14.1 332 12.2
2010-04-23 06:36:57 51°15.35 2°54.142 329.8 14.1 332 12.2
2010-04-23 06:37:02 51°15.367 2°54.127 329.6 14.1 332 12.3
2010-04-23 06:37:07 51°15.383 2°54.111 329.2 14.1 332 12.4
2010-04-23 06:37:12 51°15.4 2°54.096 329.3 14.1 331 12.4
2010-04-23 06:37:17 51°15.418 2°54.082 328.7 14.1 331 12.5
2010-04-23 06:37:22 51°15.436 2°54.069 330.2 14.2 335 12.3
2010-04-23 06:37:27 51°15.455 2°54.056 331.5 14.2 335 12.5
2010-04-23 06:37:32 51°15.473 2°54.045 333.2 14.3 338 12.7
2010-04-23 06:37:37 51°15.491 2°54.032 334.7 14.3 337 12.5
2010-04-23 06:37:42 51°15.51 2°54.021 336.4 14.3 340 12.5
2010-04-23 06:37:47 51°15.528 2°54.01 337.2 14.2 339 12.4
2010-04-23 06:37:52 51°15.545 2°54.001 337.8 14.3 341 12.7
2010-04-23 06:37:57 51°15.564 2°53.99 338.7 14.3 341 12.8
2010-04-23 06:38:02 51°15.584 2°53.98 339.3 14.3 342 12.8
2010-04-23 06:38:07 51°15.603 2°53.97 340.2 14.3 342 13
2010-04-23 06:38:12 51°15.622 2°53.961 340.7 14.3 343 12.9
2010-04-23 06:38:17 51°15.641 2°53.952 341 14.3 343 12.8
2010-04-23 06:38:21 51°15.657 2°53.945 341.2 14.3 343 13.1
2010-04-23 06:38:27 51°15.679 2°53.934 341.5 14.4 344 13
2010-04-23 06:38:32 51°15.698 2°53.925 341.3 14.3 343 13.2
2010-04-23 06:38:37 51°15.717 2°53.916 341.2 14.3 344 13
2010-04-23 06:38:41 51°15.732 2°53.909 340.9 14.3 343 13.4
2010-04-23 06:38:47 51°15.755 2°53.898 340.7 14.3 343 13.3
2010-04-23 06:38:52 51°15.773 2°53.889 340.5 14.3 343 13.3
2010-04-23 06:38:57 51°15.791 2°53.88 340.4 14.3 343 13.4
2010-04-23 06:39:02 51°15.81 2°53.871 340.3 14.3 343 13.4
2010-04-23 06:39:07 51°15.829 2°53.862 340.2 14.3 343 13.4
2010-04-23 06:39:12 51°15.849 2°53.851 340.2 14.4 343 13.5
2010-04-23 06:39:17 51°15.869 2°53.841 340.3 14.3 343 13.5
2010-04-23 06:39:21 51°15.884 2°53.834 340.5 14.4 343 14
2010-04-23 06:39:27 51°15.907 2°53.823 340.5 14.4 343 13.8
2010-04-23 06:39:32 51°15.926 2°53.814 340.7 14.4 343 13.6
2010-04-23 06:39:37 51°15.943 2°53.802 340.1 14.3 341 13.9
2010-04-23 06:39:42 51°15.96 2°53.79 338.5 14.3 340 14
2010-04-23 06:39:47 51°15.978 2°53.779 337.9 14.3 338 14.2
2010-04-23 06:39:52 51°15.997 2°53.768 336.9 14.3 339 13.9
2010-04-23 06:39:57 51°16.017 2°53.758 336.2 14.2 338 13.6
2010-04-23 06:40:02 51°16.036 2°53.746 335.4 14.3 337 13.9
2010-04-23 06:40:07 51°16.055 2°53.734 335.1 14.3 337 13.9
2010-04-23 06:40:12 51°16.073 2°53.722 334.7 14.3 337 14
2010-04-23 06:40:17 51°16.091 2°53.71 334.5 14.3 337 13.9
2010-04-23 06:40:21 51°16.105 2°53.7 334.2 14.3 337 14
2010-04-23 06:40:27 51°16.127 2°53.685 334.3 14.2 337 14
2010-04-23 06:40:32 51°16.145 2°53.672 334.4 14.2 336 14.2
2010-04-23 06:40:37 51°16.163 2°53.659 333.3 14.2 334 14.1
2010-04-23 06:40:41 51°16.177 2°53.648 332.3 14.2 335 14
2010-04-23 06:40:47 51°16.198 2°53.632 331.3 14.1 333 14
2010-04-23 06:40:52 51°16.216 2°53.618 330.6 14.2 333 14.6
2010-04-23 06:40:57 51°16.233 2°53.603 330.1 14.2 332 14.2
2010-04-23 06:41:02 51°16.25 2°53.589 329.6 14.1 332 14.1
2010-04-23 06:41:07 51°16.267 2°53.574 329.2 14.2 332 14.3
2010-04-23 06:41:12 51°16.284 2°53.559 328.9 14.1 331 14.2
2010-04-23 06:41:17 51°16.301 2°53.545 328.7 14.1 332 14.5
2010-04-23 06:41:22 51°16.319 2°53.53 329 14.2 333 14.5
2010-04-23 06:41:27 51°16.334 2°53.517 328.9 14.1 331 14.3
2010-04-23 06:41:32 51°16.351 2°53.503 328.8 14.1 332 14.4
2010-04-23 06:41:37 51°16.369 2°53.487 328.8 14.1 332 14.3
2010-04-23 06:41:42 51°16.388 2°53.471 328.9 14.2 332 14.3
2010-04-23 06:41:47 51°16.404 2°53.455 328.9 14.2 332 14.1
2010-04-23 06:41:52 51°16.422 2°53.44 328.7 14.2 332 14.2
2010-04-23 06:41:57 51°16.437 2°53.426 328.7 14.2 332 14.3
2010-04-23 06:42:02 51°16.453 2°53.413 328.8 14.1 332 14.3
2010-04-23 06:42:07 51°16.469 2°53.398 328.8 14.1 332 14.3
2010-04-23 06:42:12 51°16.487 2°53.384 328.8 14.1 332 14.2
2010-04-23 06:42:17 51°16.504 2°53.369 328.7 14.1 332 14.2
2010-04-23 06:42:22 51°16.522 2°53.355 328.6 14.1 332 14
2010-04-23 06:42:27 51°16.539 2°53.34 328.9 14.1 332 14.3
2010-04-23 06:42:32 51°16.557 2°53.327 328.9 14 332 14.1
2010-04-23 06:42:37 51°16.575 2°53.313 328.9 14.1 333 14.2
2010-04-23 06:42:41 51°16.588 2°53.301 329.2 14.1 333 14.3
2010-04-23 06:42:47 51°16.609 2°53.283 329.3 14.1 333 14
2010-04-23 06:42:52 51°16.626 2°53.269 329.1 14 332 14
2010-04-23 06:42:57 51°16.643 2°53.254 328.9 13.9 332 13.7
2010-04-23 06:43:02 51°16.66 2°53.24 328.9 14 332 14.1
2010-04-23 06:43:07 51°16.677 2°53.225 328.8 14 332 13.7
2010-04-23 06:43:12 51°16.695 2°53.211 329 14 332 13.6
2010-04-23 06:43:17 51°16.712 2°53.197 329.1 14 332 13.7
2010-04-23 06:43:22 51°16.729 2°53.183 329.1 14 332 13.6
2010-04-23 06:43:27 51°16.746 2°53.168 329.1 14 331 13.6
2010-04-23 06:43:32 51°16.764 2°53.153 328.9 13.9 332 13.3
2010-04-23 06:43:37 51°16.78 2°53.138 328.6 13.9 331 13.5
2010-04-23 06:43:42 51°16.797 2°53.124 328.7 14 332 13.5
2010-04-23 06:43:47 51°16.815 2°53.11 329 14 332 12.7
2010-04-23 06:43:52 51°16.832 2°53.095 329.1 14 332 12.2
2010-04-23 06:43:57 51°16.849 2°53.081 329.2 14 332 11.5
2010-04-23 06:44:02 51°16.866 2°53.066 329.2 13.8 332 11.4
2010-04-23 06:44:07 51°16.882 2°53.051 329 13.8 331 11.2
2010-04-23 06:44:12 51°16.899 2°53.035 327.9 13.8 330 11.1
2010-04-23 06:44:17 51°16.915 2°53.02 326.7 13.8 330 11
2010-04-23 06:44:22 51°16.931 2°53.004 326 13.8 328 11.2
2010-04-23 06:44:27 51°16.948 2°52.988 325.2 13.8 328 11
2010-04-23 06:44:32 51°16.964 2°52.971 324.6 13.9 326 11.2
2010-04-23 06:44:37 51°16.98 2°52.954 323.8 13.9 327 11.2
2010-04-23 06:44:42 51°16.996 2°52.937 323.6 14 326 11.5
2010-04-23 06:44:47 51°17.012 2°52.92 323.3 14 326 11.6
2010-04-23 06:44:52 51°17.028 2°52.902 323.1 14 326 11.8
2010-04-23 06:44:57 51°17.044 2°52.885 323.1 14 326 12
2010-04-23 06:45:02 51°17.061 2°52.867 322.8 14.1 326 12.2
2010-04-23 06:45:07 51°17.077 2°52.85 323 14.1 326 12.4
2010-04-23 06:45:12 51°17.094 2°52.835 325.3 14.2 333 12.6
2010-04-23 06:45:17 51°17.11 2°52.819 326.7 14.1 328 12.1
2010-04-23 06:45:22 51°17.128 2°52.804 327.1 14.2 332 12.4
2010-04-23 06:45:27 51°17.145 2°52.789 328.1 14.1 330 12.7
2010-04-23 06:45:32 51°17.163 2°52.774 328.3 14.2 333 12.4
2010-04-23 06:45:37 51°17.18 2°52.76 329.1 14.1 333 12
2010-04-23 06:45:42 51°17.197 2°52.746 329.2 14.1 333 12
2010-04-23 06:45:47 51°17.216 2°52.736 333.4 14.2 340 12
2010-04-23 06:45:52 51°17.235 2°52.723 335.4 14.2 339 12.6
2010-04-23 06:45:57 51°17.254 2°52.716 338 14.4 344 12.2
2010-04-23 06:46:02 51°17.273 2°52.705 339.5 14.3 342 12.4
2010-04-23 06:46:07 51°17.292 2°52.697 341.2 14.4 346 12.3
2010-04-23 06:46:12 51°17.311 2°52.688 342.3 14.4 345 12.5
2010-04-23 06:46:17 51°17.331 2°52.682 343.5 14.5 348 12.5
2010-04-23 06:46:22 51°17.35 2°52.674 344.2 14.4 346 12.2
2010-04-23 06:46:27 51°17.37 2°52.668 345.1 14.5 349 12.7
2010-04-23 06:46:32 51°17.389 2°52.661 345.6 14.4 348 12.3
2010-04-23 06:46:37 51°17.409 2°52.655 346.1 14.5 349 12.6
2010-04-23 06:46:42 51°17.429 2°52.649 346.5 14.5 349 12.7
2010-04-23 06:46:47 51°17.449 2°52.643 346.7 14.5 349 12.5
2010-04-23 06:46:52 51°17.469 2°52.637 346.7 14.5 349 12.5
2010-04-23 06:46:57 51°17.489 2°52.632 348.1 14.6 352 12.7
2010-04-23 06:47:02 51°17.509 2°52.627 349.1 14.5 351 12.7
2010-04-23 06:47:07 51°17.529 2°52.623 349.6 14.6 353 12.6
2010-04-23 06:47:12 51°17.549 2°52.619 350.2 14.6 351 12.7
2010-04-23 06:47:17 51°17.569 2°52.615 350.4 14.6 354 12.7
2010-04-23 06:47:21 51°17.585 2°52.612 351 14.7 353 12.8
2010-04-23 06:47:27 51°17.609 2°52.607 351.3 14.6 354 12.7
2010-04-23 06:47:32 51°17.63 2°52.604 351.4 14.7 353 12.9
2010-04-23 06:47:37 51°17.65 2°52.6 351.1 14.6 353 12.7
2010-04-23 06:47:41 51°17.666 2°52.596 350.9 14.6 353 12.9
2010-04-23 06:47:47 51°17.69 2°52.591 350.8 14.6 352 13
2010-04-23 06:47:52 51°17.71 2°52.587 350.7 14.7 353 12.9
2010-04-23 06:47:57 51°17.73 2°52.583 350.7 14.7 353 12.5
2010-04-23 06:48:02 51°17.75 2°52.578 350.7 14.7 353 12.4
2010-04-23 06:48:07 51°17.77 2°52.575 351 14.7 353 12.9
2010-04-23 06:48:12 51°17.79 2°52.57 351.1 14.7 353 12.7
2010-04-23 06:48:17 51°17.81 2°52.566 350.8 14.6 352 12.7
2010-04-23 06:48:22 51°17.83 2°52.562 350.7 14.6 353 12.9
2010-04-23 06:48:27 51°17.85 2°52.557 350.2 14.6 352 12.9
2010-04-23 06:48:32 51°17.871 2°52.552 350.2 14.7 352 12.9
2010-04-23 06:48:37 51°17.891 2°52.548 350.5 14.7 352 12.9
2010-04-23 06:48:42 51°17.911 2°52.544 350.4 14.6 352 12.8
2010-04-23 06:48:47 51°17.931 2°52.539 350.4 14.6 352 13.1
2010-04-23 06:48:52 51°17.952 2°52.535 350.5 14.7 352 12.9
2010-04-23 06:48:57 51°17.972 2°52.53 350.1 14.7 351 12.9
2010-04-23 06:49:02 51°17.992 2°52.525 349.9 14.7 352 13.2
2010-04-23 06:49:07 51°18.012 2°52.52 349.9 14.6 351 12.6
2010-04-23 06:49:12 51°18.032 2°52.515 350.3 14.6 352 13
2010-04-23 06:49:17 51°18.052 2°52.511 350.3 14.7 352 13.2
2010-04-23 06:49:21 51°18.068 2°52.507 350.3 14.6 352 13.1
2010-04-23 06:49:27 51°18.092 2°52.502 350.1 14.7 352 13.2
2010-04-23 06:49:32 51°18.113 2°52.498 350.3 14.5 352 13
2010-04-23 06:49:37 51°18.132 2°52.493 350.1 14.5 351 13.2
2010-04-23 06:49:41 51°18.148 2°52.489 349.8 14.6 352 13.5
2010-04-23 06:49:47 51°18.172 2°52.483 349.9 14.6 351 13.2
2010-04-23 06:49:52 51°18.192 2°52.478 349.9 14.6 352 13.3
2010-04-23 06:49:57 51°18.212 2°52.473 350.1 14.5 351 13.2
2010-04-23 06:50:02 51°18.232 2°52.469 350.1 14.6 352 13.6
2010-04-23 06:50:07 51°18.252 2°52.464 349.9 14.5 351 13.3
2010-04-23 06:50:12 51°18.272 2°52.459 349.9 14.6 352 13.6
2010-04-23 06:50:17 51°18.292 2°52.454 349.7 14.5 351 13.4
2010-04-23 06:50:22 51°18.312 2°52.449 349.4 14.6 351 13.6
2010-04-23 06:50:27 51°18.332 2°52.445 349.7 14.6 352 13.4
2010-04-23 06:50:32 51°18.352 2°52.439 349.4 14.6 351 13.7
2010-04-23 06:50:37 51°18.372 2°52.435 349.7 14.6 352 13.6
2010-04-23 06:50:42 51°18.392 2°52.43 349.8 14.6 350 13.6
2010-04-23 06:50:47 51°18.412 2°52.426 350.2 14.6 353 13.6
2010-04-23 06:50:52 51°18.432 2°52.42 349.9 14.5 350 13.7
2010-04-23 06:50:57 51°18.452 2°52.416 349.9 14.6 353 14.1
2010-04-23 06:51:02 51°18.471 2°52.41 350.1 14.6 351 13.8
2010-04-23 06:51:07 51°18.492 2°52.406 349.9 14.5 352 13.8
2010-04-23 06:51:12 51°18.511 2°52.401 350.1 14.6 351 14.1
2010-04-23 06:51:17 51°18.531 2°52.396 350 14.5 351 14
2010-04-23 06:51:22 51°18.551 2°52.392 349.9 14.5 352 14.1
2010-04-23 06:51:27 51°18.571 2°52.387 349.9 14.6 351 14.1
2010-04-23 06:51:32 51°18.591 2°52.382 349.9 14.5 351 14.1
2010-04-23 06:51:37 51°18.611 2°52.377 349.7 14.5 351 14.1
2010-04-23 06:51:41 51°18.627 2°52.373 349.5 14.5 351 14.4
2010-04-23 06:51:47 51°18.651 2°52.367 349.5 14.5 351 14.3
2010-04-23 06:51:52 51°18.671 2°52.362 349.6 14.5 351 14.3
2010-04-23 06:51:57 51°18.691 2°52.357 349.6 14.5 351 14.4
2010-04-23 06:52:02 51°18.711 2°52.353 349.5 14.5 351 14.6
2010-04-23 06:52:07 51°18.73 2°52.347 349.5 14.6 351 15
2010-04-23 06:52:12 51°18.75 2°52.343 349.8 14.5 352 14.7
2010-04-23 06:52:17 51°18.77 2°52.338 349.8 14.5 351 14.8
2010-04-23 06:52:22 51°18.79 2°52.333 349.4 14.5 351 14.9
2010-04-23 06:52:27 51°18.81 2°52.329 349.8 14.5 352 15
2010-04-23 06:52:32 51°18.83 2°52.324 349.4 14.5 351 15
2010-04-23 06:52:37 51°18.85 2°52.32 349.6 14.4 352 15.2
2010-04-23 06:52:42 51°18.87 2°52.315 349.6 14.4 351 15.6
2010-04-23 06:52:47 51°18.889 2°52.31 349.4 14.5 351 15.5
2010-04-23 06:52:52 51°18.909 2°52.304 349.4 14.5 351 15.8
2010-04-23 06:52:57 51°18.929 2°52.299 349.5 14.5 351 15.7
2010-04-23 06:53:02 51°18.948 2°52.294 349.5 14.5 352 15.8
2010-04-23 06:53:07 51°18.968 2°52.29 349.6 14.5 352 15.9
2010-04-23 06:53:12 51°18.988 2°52.285 349.6 14.5 352 15.8
2010-04-23 06:53:17 51°19.008 2°52.28 349.6 14.5 352 15.9
2010-04-23 06:53:22 51°19.028 2°52.276 349.6 14.4 351 16
2010-04-23 06:53:27 51°19.048 2°52.271 349.3 14.5 351 16.4
2010-04-23 06:53:32 51°19.068 2°52.266 349.3 14.5 351 16.4
2010-04-23 06:53:37 51°19.088 2°52.261 349.2 14.5 351 16.5
2010-04-23 06:53:42 51°19.108 2°52.257 349.5 14.5 351 16.7
2010-04-23 06:53:47 51°19.127 2°52.251 349.4 14.5 351 16.7
2010-04-23 06:53:52 51°19.147 2°52.246 349.1 14.4 350 16.9
2010-04-23 06:53:57 51°19.167 2°52.24 348.6 14.5 349 16.8
2010-04-23 06:54:01 51°19.182 2°52.236 348.6 14.5 350 17
2010-04-23 06:54:07 51°19.207 2°52.23 349.2 14.5 350 17.3
2010-04-23 06:54:12 51°19.227 2°52.224 349.5 14.5 351 17.3
2010-04-23 06:54:17 51°19.246 2°52.219 349.7 14.5 351 17.3
2010-04-23 06:54:21 51°19.262 2°52.215 349.5 14.5 351 17.2
2010-04-23 06:54:27 51°19.286 2°52.209 349.6 14.5 351 17.5
2010-04-23 06:54:32 51°19.306 2°52.203 349.4 14.6 351 17.6
2010-04-23 06:54:37 51°19.326 2°52.198 349.6 14.6 351 17.7
2010-04-23 06:54:41 51°19.342 2°52.194 349.7 14.6 351 17.8
2010-04-23 06:54:47 51°19.366 2°52.188 349.7 14.6 352 17.8
2010-04-23 06:54:52 51°19.386 2°52.183 349.9 14.6 352 17.6
2010-04-23 06:54:57 51°19.406 2°52.178 350 14.7 352 17.9
2010-04-23 06:55:02 51°19.426 2°52.174 350 14.6 352 18
2010-04-23 06:55:07 51°19.446 2°52.169 349.9 14.7 352 18.2
2010-04-23 06:55:12 51°19.466 2°52.164 349.6 14.7 352 17.8
2010-04-23 06:55:17 51°19.487 2°52.159 349.7 14.7 352 17.8
2010-04-23 06:55:21 51°19.503 2°52.155 349.5 14.7 351 18
2010-04-23 06:55:27 51°19.527 2°52.15 349.4 14.7 351 18.2
2010-04-23 06:55:32 51°19.547 2°52.145 349.4 14.7 351 18.2
2010-04-23 06:55:37 51°19.567 2°52.14 349.1 14.7 351 18.3
2010-04-23 06:55:41 51°19.584 2°52.136 349.3 14.7 352 18
2010-04-23 06:55:47 51°19.608 2°52.13 349.4 14.7 351 18.2
2010-04-23 06:55:52 51°19.628 2°52.124 349.3 14.7 350 18.2
2010-04-23 06:55:57 51°19.648 2°52.119 349.1 14.7 351 18.4
2010-04-23 06:56:02 51°19.667 2°52.11 345 14.6 343 18.4
2010-04-23 06:56:07 51°19.687 2°52.102 343.5 14.6 346 18.3
2010-04-23 06:56:12 51°19.706 2°52.091 341.3 14.5 340 18.5
2010-04-23 06:56:17 51°19.725 2°52.081 339.2 14.6 343 18.6
2010-04-23 06:56:21 51°19.74 2°52.071 337.9 14.5 338 18.6
2010-04-23 06:56:27 51°19.763 2°52.058 336.8 14.6 340 18.5
2010-04-23 06:56:32 51°19.782 2°52.046 335.8 14.5 337 18.5
2010-04-23 06:56:37 51°19.8 2°52.033 334.7 14.5 337 18.4
2010-04-23 06:56:41 51°19.815 2°52.023 334 14.5 336 18.4
2010-04-23 06:56:47 51°19.837 2°52.007 333.3 14.5 336 18.4
2010-04-23 06:56:52 51°19.855 2°51.993 333.1 14.5 335 18.4
2010-04-23 06:56:57 51°19.873 2°51.979 332.7 14.4 335 18
2010-04-23 06:57:01 51°19.887 2°51.968 332.3 14.4 335 18.3
2010-04-23 06:57:07 51°19.908 2°51.95 331.2 14.4 332 18.1
2010-04-23 06:57:12 51°19.926 2°51.934 329.7 14.3 331 18.2
2010-04-23 06:57:17 51°19.943 2°51.919 328.8 14.3 331 18.2
2010-04-23 06:57:21 51°19.957 2°51.906 327.7 14.3 329 18
2010-04-23 06:57:27 51°19.977 2°51.887 327.4 14.3 329 18
2010-04-23 06:57:32 51°19.995 2°51.871 326.7 14.3 329 17.8
2010-04-23 06:57:37 51°20.012 2°51.855 326.7 14.3 329 17.8
2010-04-23 06:57:41 51°20.025 2°51.841 326.2 14.3 328 17.8
2010-04-23 06:57:47 51°20.045 2°51.821 326 14.3 329 17.4
2010-04-23 06:57:52 51°20.062 2°51.804 326.2 14.3 328 17.6
2010-04-23 06:57:57 51°20.079 2°51.788 326.3 14.3 328 17.5
2010-04-23 06:58:01 51°20.093 2°51.775 326.7 14.3 329 16.9
2010-04-23 06:58:07 51°20.112 2°51.753 326.7 14.2 327 16.7
2010-04-23 06:58:12 51°20.129 2°51.737 326.7 14.2 328 16.4
2010-04-23 06:58:17 51°20.144 2°51.717 324.1 14.1 322 16.4
2010-04-23 06:58:21 51°20.157 2°51.702 322.5 14.1 325 15.9
2010-04-23 06:58:27 51°20.176 2°51.68 321.3 14 321 16
2010-04-23 06:58:32 51°20.191 2°51.66 319.9 14.1 321 16
2010-04-23 06:58:37 51°20.206 2°51.641 318.9 14 319 15.3
2010-04-23 06:58:41 51°20.218 2°51.625 318.1 14 320 14.5
2010-04-23 06:58:46 51°20.232 2°51.604 317.6 13.9 318 15.2
2010-04-23 06:58:52 51°20.25 2°51.58 317.2 14 319 15.4
2010-04-23 06:58:57 51°20.264 2°51.559 316.8 14 318 15.7
2010-04-23 06:59:01 51°20.276 2°51.543 316.3 14 318 16
2010-04-23 06:59:06 51°20.291 2°51.523 316.2 13.9 318 15.9
2010-04-23 06:59:12 51°20.307 2°51.498 316 13.9 318 16
2010-04-23 06:59:17 51°20.322 2°51.477 315.8 13.9 318 15.8
2010-04-23 06:59:21 51°20.333 2°51.46 316.3 14 318 15.9
2010-04-23 06:59:27 51°20.351 2°51.436 316.5 14 318 15.9
2010-04-23 06:59:32 51°20.365 2°51.415 316.5 14 319 16
2010-04-23 06:59:37 51°20.38 2°51.394 316.7 14 319 16
2010-04-23 06:59:41 51°20.391 2°51.378 316.8 13.9 319 16.5
2010-04-23 06:59:47 51°20.409 2°51.354 317.1 13.9 319 17.1
2010-04-23 06:59:52 51°20.424 2°51.335 316.9 13.9 319 16.7
2010-04-23 06:59:57 51°20.438 2°51.314 316.6 14 319 17.5
2010-04-23 07:00:01 51°20.45 2°51.299 318.1 14 322 17.6
2010-04-23 07:00:07 51°20.469 2°51.275 318.7 14 320 18
2010-04-23 07:00:12 51°20.484 2°51.256 319.4 14.1 323 18.2
2010-04-23 07:00:17 51°20.499 2°51.237 320.2 14 322 18.1
2010-04-23 07:00:21 51°20.512 2°51.222 320.4 14 324 18.4
2010-04-23 07:00:27 51°20.53 2°51.199 320.9 14 322 18.8
2010-04-23 07:00:32 51°20.546 2°51.18 320.9 14.1 323 19.1
2010-04-23 07:00:37 51°20.562 2°51.162 321.7 14.1 323 18.7
2010-04-23 07:00:41 51°20.575 2°51.148 321.6 14.1 324 18.7
2010-04-23 07:00:47 51°20.594 2°51.126 321.6 14.1 323 18.9
2010-04-23 07:00:52 51°20.61 2°51.108 321.6 14.1 324 19
2010-04-23 07:00:57 51°20.625 2°51.089 321.7 14.1 323 19.4
2010-04-23 07:01:01 51°20.638 2°51.074 321.7 14.1 324 19.1
2010-04-23 07:01:07 51°20.657 2°51.051 322.1 14.1 324 19.4
2010-04-23 07:01:12 51°20.672 2°51.032 322 14.2 324 19.9
2010-04-23 07:01:17 51°20.688 2°51.014 321.7 14.2 324 19.7
2010-04-23 07:01:21 51°20.701 2°51 321.7 14.2 324 19.9
2010-04-23 07:01:27 51°20.72 2°50.977 321.7 14.1 324 20.4
2010-04-23 07:01:32 51°20.736 2°50.959 321.6 14.1 324 21
2010-04-23 07:01:37 51°20.752 2°50.941 321.6 14.1 324 20.9
2010-04-23 07:01:41 51°20.765 2°50.926 321.7 14.1 324 21.4
2010-04-23 07:01:47 51°20.783 2°50.904 322 14.1 324 21.7
2010-04-23 07:01:52 51°20.799 2°50.885 322.3 14.1 324 22.3
2010-04-23 07:01:57 51°20.814 2°50.866 322.4 14.2 324 22.3
2010-04-23 07:02:02 51°20.83 2°50.847 322.1 14.1 324 22.4
2010-04-23 07:02:07 51°20.846 2°50.829 321.9 14.1 324 23
2010-04-23 07:02:12 51°20.862 2°50.811 322.1 14.2 324 23.2
2010-04-23 07:02:17 51°20.878 2°50.792 322 14.2 324 23.3
2010-04-23 07:02:22 51°20.894 2°50.773 321.9 14.2 324 24
2010-04-23 07:02:27 51°20.909 2°50.754 321.8 14.2 323 24
2010-04-23 07:02:32 51°20.926 2°50.736 322.1 14.2 325 24.1
2010-04-23 07:02:37 51°20.942 2°50.718 322.1 14.2 324 24.5
2010-04-23 07:02:41 51°20.955 2°50.704 322.1 14.2 324 24.7
2010-04-23 07:02:47 51°20.974 2°50.681 322 14.2 324 25.1
2010-04-23 07:02:52 51°20.99 2°50.663 322.1 14.2 325 25.1
2010-04-23 07:02:57 51°21.006 2°50.644 322.2 14.3 325 25.3
2010-04-23 07:03:01 51°21.019 2°50.629 322.3 14.2 325 25.2
2010-04-23 07:03:07 51°21.038 2°50.607 322.3 14.2 325 25.5
2010-04-23 07:03:12 51°21.055 2°50.589 322.6 14.2 325 25.9
2010-04-23 07:03:17 51°21.071 2°50.571 322.3 14.2 325 26.1
2010-04-23 07:03:21 51°21.084 2°50.556 322.2 14.3 324 25.9
2010-04-23 07:03:27 51°21.103 2°50.535 322.2 14.3 325 25.8
2010-04-23 07:03:32 51°21.119 2°50.516 322.2 14.3 324 26.1
2010-04-23 07:03:37 51°21.135 2°50.497 322.3 14.3 324 26
2010-04-23 07:03:41 51°21.148 2°50.482 322.3 14.3 324 26.1
2010-04-23 07:03:47 51°21.167 2°50.459 321.9 14.3 324 25.9
2010-04-23 07:03:52 51°21.183 2°50.442 322 14.2 325 25.9
2010-04-23 07:03:57 51°21.199 2°50.424 321.8 14.3 324 26.2
2010-04-23 07:04:02 51°21.216 2°50.405 321.8 14.2 324 25.6
2010-04-23 07:04:07 51°21.232 2°50.387 321.9 14.2 324 26.1
2010-04-23 07:04:07 51°21.232 2°50.387 321.9 14.2 324 26.1
2010-04-23 07:04:19 51°21.27 2°50.342 321.9 14.2 324 25.9
2010-04-23 07:04:24 51°21.286 2°50.324 321.8 14.2 325 26
2010-04-23 07:04:24 51°21.286 2°50.324 321.8 14.2 325 26
2010-04-23 07:04:41 51°21.341 2°50.263 322.5 14.3 325 25.8
2010-04-23 07:04:46 51°21.357 2°50.245 322.6 14.3 325 25.6
2010-04-23 07:04:49 51°21.367 2°50.234 322.6 14.2 325 25.8
2010-04-23 07:04:56 51°21.39 2°50.209 322.2 14.3 324 25.6
2010-04-23 07:05:13 51°21.445 2°50.147 322.3 14.3 325 25.4
2010-04-23 07:05:36 51°21.52 2°50.063 322.3 14.3 325 24.7
2010-04-23 07:05:41 51°21.536 2°50.046 322.4 14.4 325 24.7
2010-04-23 07:05:46 51°21.552 2°50.027 322 14.3 325 24.9
2010-04-23 07:06:01 51°21.601 2°49.972 321.7 14.4 325 24.6
2010-04-23 07:06:15 51°21.647 2°49.92 322 14.4 325 24.3
2010-04-23 07:07:29 51°21.89 2°49.652 322.3 14.4 326 26.1
2010-04-23 07:07:35 51°21.909 2°49.629 322.3 14.4 325 25.9
2010-04-23 07:07:40 51°21.926 2°49.611 322.3 14.4 326 26.1
2010-04-23 07:07:45 51°21.943 2°49.593 322.5 14.4 324 25.9
2010-04-23 07:07:49 51°21.956 2°49.579 322.2 14.4 325 25.8
2010-04-23 07:07:55 51°21.976 2°49.558 322.3 14.4 326 25.7
2010-04-23 07:08:00 51°21.992 2°49.539 322.3 14.3 323 26
2010-04-23 07:08:05 51°22.009 2°49.521 322.4 14.3 326 25.9
2010-04-23 07:08:09 51°22.02 2°49.504 319.3 14.1 318 26
2010-04-23 07:08:15 51°22.039 2°49.481 318.2 14.3 323 26.3
2010-04-23 07:08:20 51°22.053 2°49.459 316.9 14.1 317 26
2010-04-23 07:08:25 51°22.068 2°49.439 315.2 14.2 319 25.8
2010-04-23 07:08:29 51°22.079 2°49.422 314.1 14.1 316 25.8
2010-04-23 07:08:35 51°22.096 2°49.395 313.2 14.1 317 25.6
2010-04-23 07:08:40 51°22.11 2°49.374 313 14.1 316 25.7
2010-04-23 07:08:45 51°22.124 2°49.352 311.9 14.1 315 25.8
2010-04-23 07:08:49 51°22.135 2°49.334 311.9 14.1 316 26.1
2010-04-23 07:08:55 51°22.151 2°49.307 311.3 14.1 313 26.3
2010-04-23 07:09:00 51°22.166 2°49.286 311.4 14.1 316 26
2010-04-23 07:09:05 51°22.179 2°49.263 311.4 14 314 25.9
2010-04-23 07:09:09 51°22.19 2°49.246 311.1 14.2 315 26
2010-04-23 07:09:15 51°22.206 2°49.218 310.8 14.1 313 25.7
2010-04-23 07:09:20 51°22.22 2°49.196 310.9 14.1 315 25.8
2010-04-23 07:09:25 51°22.233 2°49.173 310.7 14.1 313 25.5
2010-04-23 07:09:29 51°22.244 2°49.156 310.5 14.1 314 24.8
2010-04-23 07:09:35 51°22.26 2°49.128 310.7 14.1 314 24.6
2010-04-23 07:09:40 51°22.274 2°49.106 310.9 14.1 314 23.7
2010-04-23 07:09:45 51°22.288 2°49.084 311.2 14 314 24.2
2010-04-23 07:09:49 51°22.299 2°49.067 311.2 14 315 23.5
2010-04-23 07:09:55 51°22.315 2°49.04 311.5 14 314 23.5
2010-04-23 07:10:00 51°22.328 2°49.018 311.3 14 315 24.6
2010-04-23 07:10:05 51°22.342 2°48.995 311.5 14 314 25.5
2010-04-23 07:10:09 51°22.353 2°48.977 311.2 14 315 26.1
2010-04-23 07:10:15 51°22.369 2°48.951 311.6 14 315 25.8
2010-04-23 07:10:20 51°22.382 2°48.928 311.6 14 314 25.6
2010-04-23 07:10:25 51°22.396 2°48.906 311.5 14 315 25.2
2010-04-23 07:10:29 51°22.407 2°48.889 311.5 13.8 315 24.5
2010-04-23 07:10:35 51°22.423 2°48.863 311.6 13.9 315 24.7
2010-04-23 07:10:40 51°22.437 2°48.841 311.5 13.9 314 24.5
2010-04-23 07:10:45 51°22.451 2°48.82 311.7 13.9 316 23.8
2010-04-23 07:10:49 51°22.462 2°48.803 312 13.9 315 23.7
2010-04-23 07:10:55 51°22.478 2°48.776 312.2 13.9 316 22.8
2010-04-23 07:11:00 51°22.492 2°48.755 312.1 13.9 314 22
2010-04-23 07:11:05 51°22.506 2°48.733 312.1 14 315 21
2010-04-23 07:11:09 51°22.517 2°48.716 312.1 13.9 316 20.5
2010-04-23 07:11:15 51°22.533 2°48.69 312 13.9 315 20.2
2010-04-23 07:11:20 51°22.547 2°48.669 312.3 13.9 316 19.6
2010-04-23 07:11:25 51°22.56 2°48.647 312.1 13.9 314 18.9
2010-04-23 07:11:29 51°22.572 2°48.63 312.2 13.9 317 16.5
2010-04-23 07:11:35 51°22.587 2°48.602 310.1 13.7 311 18.4
2010-04-23 07:11:40 51°22.6 2°48.581 309.3 13.8 314 19.1
2010-04-23 07:11:45 51°22.612 2°48.557 307.9 13.7 310 19.8
2010-04-23 07:11:49 51°22.622 2°48.539 307.1 13.8 311 19.7
2010-04-23 07:11:55 51°22.636 2°48.51 306.4 13.7 309 19.9
2010-04-23 07:12:00 51°22.648 2°48.486 305.5 13.6 308 19.7
2010-04-23 07:12:05 51°22.659 2°48.461 303.6 13.6 307 19.9
2010-04-23 07:12:09 51°22.668 2°48.442 303 13.6 306 20
2010-04-23 07:12:14 51°22.679 2°48.417 302.2 13.6 305 20.3
2010-04-23 07:12:20 51°22.692 2°48.387 301.2 13.6 305 20.7
2010-04-23 07:12:25 51°22.703 2°48.363 301 13.6 304 19.9
2010-04-23 07:12:29 51°22.711 2°48.343 300.9 13.5 305 20
2010-04-23 07:12:35 51°22.723 2°48.313 300.2 13.5 303 19.4
2010-04-23 07:12:40 51°22.734 2°48.288 299.9 13.5 303 19.8
2010-04-23 07:12:45 51°22.744 2°48.263 299.8 13.6 305 20.3
2010-04-23 07:12:49 51°22.752 2°48.243 299.7 13.6 303 20.1
2010-04-23 07:12:55 51°22.765 2°48.213 299.9 13.6 305 20.6
2010-04-23 07:13:00 51°22.775 2°48.188 299.8 13.6 303 21.3
2010-04-23 07:13:05 51°22.786 2°48.163 300 13.7 305 21
2010-04-23 07:13:09 51°22.795 2°48.143 299.9 13.6 304 20.9
2010-04-23 07:13:15 51°22.807 2°48.113 299.8 13.6 305 21
2010-04-23 07:13:20 51°22.818 2°48.088 300.1 13.6 305 20.2
2010-04-23 07:13:25 51°22.829 2°48.063 300 13.7 305 18
2010-04-23 07:13:30 51°22.84 2°48.038 300.4 13.6 305 19.8
2010-04-23 07:13:35 51°22.851 2°48.014 301 13.5 305 21
2010-04-23 07:13:40 51°22.861 2°47.989 300 13.5 304 21.3
2010-04-23 07:13:45 51°22.872 2°47.964 300 13.6 305 21.7
2010-04-23 07:13:50 51°22.882 2°47.939 300.2 13.6 304 22
2010-04-23 07:13:55 51°22.893 2°47.914 300.2 13.6 305 21.9
2010-04-23 07:14:00 51°22.904 2°47.889 299.9 13.6 304 21.5
2010-04-23 07:14:05 51°22.915 2°47.865 300.3 13.6 306 18.6
2010-04-23 07:14:09 51°22.923 2°47.844 300.3 13.6 305 20
2010-04-23 07:14:15 51°22.937 2°47.815 300.6 13.6 306 21.6
2010-04-23 07:14:20 51°22.947 2°47.79 300.9 13.6 304 22.3
2010-04-23 07:14:25 51°22.958 2°47.765 300.3 13.6 305 22
2010-04-23 07:14:29 51°22.966 2°47.745 299.9 13.6 304 19.5
2010-04-23 07:14:35 51°22.979 2°47.715 300.1 13.6 305 21.5
2010-04-23 07:14:40 51°22.99 2°47.691 300.5 13.6 305 22.1
2010-04-23 07:14:45 51°23.001 2°47.666 300.6 13.6 305 23.1
2010-04-23 07:14:49 51°23.009 2°47.646 300.5 13.7 304 23.5
2010-04-23 07:14:55 51°23.022 2°47.616 300.4 13.7 305 23.6
2010-04-23 07:15:00 51°23.033 2°47.592 300.6 13.6 304 24
2010-04-23 07:15:05 51°23.044 2°47.567 300.7 13.6 305 23.6
2010-04-23 07:15:09 51°23.052 2°47.547 300.6 13.6 304 23.1
2010-04-23 07:15:15 51°23.065 2°47.517 300.3 13.7 306 22.1
2010-04-23 07:15:20 51°23.076 2°47.492 300.6 13.7 304 21.3
2010-04-23 07:15:25 51°23.087 2°47.468 300.8 13.7 306 20.5
2010-04-23 07:15:29 51°23.096 2°47.448 301.3 13.7 305 20.7
2010-04-23 07:15:35 51°23.109 2°47.418 300.9 13.7 306 21.5
2010-04-23 07:15:40 51°23.12 2°47.393 301.3 13.7 305 21.1
2010-04-23 07:15:45 51°23.131 2°47.369 301.3 13.7 305 21.6
2010-04-23 07:15:49 51°23.14 2°47.349 301.2 13.7 306 20.6
2010-04-23 07:15:55 51°23.153 2°47.319 301.5 13.7 305 20.2
2010-04-23 07:16:00 51°23.164 2°47.294 301.3 13.7 305 22.3
2010-04-23 07:16:05 51°23.175 2°47.27 301.4 13.7 305 23.5
2010-04-23 07:16:09 51°23.184 2°47.25 301.2 13.7 305 24.2
2010-04-23 07:16:15 51°23.197 2°47.22 300.9 13.7 304 24
2010-04-23 07:16:20 51°23.208 2°47.195 300.9 13.7 305 21.7
2010-04-23 07:16:25 51°23.219 2°47.169 300.9 13.7 305 22.1
2010-04-23 07:16:29 51°23.227 2°47.15 301 13.7 304 22.9
2010-04-23 07:16:35 51°23.24 2°47.12 301.3 13.7 305 23.3
2010-04-23 07:16:40 51°23.251 2°47.094 301.2 13.7 303 24.3
2010-04-23 07:16:45 51°23.262 2°47.069 300.6 13.7 305 24.5
2010-04-23 07:16:49 51°23.27 2°47.049 301 13.7 304 25.1
2010-04-23 07:16:55 51°23.283 2°47.019 300.8 13.7 304 24.8
2010-04-23 07:17:00 51°23.294 2°46.994 301.2 13.8 304 21.8
2010-04-23 07:17:05 51°23.304 2°46.968 301.1 13.8 304 24.1
2010-04-23 07:17:09 51°23.313 2°46.948 301.2 13.8 304 24.7
2010-04-23 07:17:15 51°23.325 2°46.917 300.6 13.8 303 26.2
2010-04-23 07:17:20 51°23.336 2°46.891 300.6 13.9 303 26.6
2010-04-23 07:17:25 51°23.346 2°46.865 300.3 13.9 302 27
2010-04-23 07:17:29 51°23.355 2°46.844 300.8 14 304 27.2
2010-04-23 07:17:35 51°23.368 2°46.813 300.8 13.9 303 27.1
2010-04-23 07:17:40 51°23.379 2°46.787 301.3 14 304 27
2010-04-23 07:17:45 51°23.389 2°46.761 301 14 303 26.7
2010-04-23 07:17:49 51°23.398 2°46.741 301.1 14 303 27.3
2010-04-23 07:17:55 51°23.411 2°46.71 301.3 14 304 27.5
2010-04-23 07:18:00 51°23.421 2°46.684 301.8 13.9 303 26.3
2010-04-23 07:18:05 51°23.432 2°46.659 301.6 13.9 305 25
2010-04-23 07:18:09 51°23.441 2°46.638 301.1 13.9 302 27.1
2010-04-23 07:18:15 51°23.453 2°46.606 299.8 13.9 302 27.9
2010-04-23 07:18:20 51°23.463 2°46.58 299.5 14 302 28.4
2010-04-23 07:18:25 51°23.473 2°46.553 298.7 14 300 28.4
2010-04-23 07:18:29 51°23.481 2°46.532 298.7 14 302 28.4
2010-04-23 07:18:35 51°23.493 2°46.5 298.6 13.9 300 28
2010-04-23 07:18:40 51°23.503 2°46.474 298.4 13.9 302 27.3
2010-04-23 07:18:45 51°23.512 2°46.447 297.8 13.9 300 27.9
2010-04-23 07:18:49 51°23.52 2°46.425 297.1 13.9 300 28.9
2010-04-23 07:18:55 51°23.531 2°46.393 296.2 13.9 297 29.2
2010-04-23 07:19:00 51°23.541 2°46.366 296.2 13.9 300 29.8
2010-04-23 07:19:05 51°23.549 2°46.339 296.1 13.9 297 29.5
2010-04-23 07:19:09 51°23.557 2°46.317 295.4 13.9 298 30
2010-04-23 07:19:14 51°23.566 2°46.29 295.1 13.9 297 29.3
2010-04-23 07:19:20 51°23.577 2°46.257 295 13.9 298 29
2010-04-23 07:19:25 51°23.586 2°46.23 294.8 14 297 28.1
2010-04-23 07:19:29 51°23.592 2°46.208 294.8 14 298 28.4
2010-04-23 07:19:35 51°23.603 2°46.175 295.1 13.9 297 28
2010-04-23 07:19:40 51°23.612 2°46.147 294.9 13.9 298 28.7
2010-04-23 07:19:45 51°23.622 2°46.12 295.1 14 299 29.5
2010-04-23 07:19:49 51°23.629 2°46.098 295.3 13.9 297 29.5
2010-04-23 07:19:55 51°23.64 2°46.065 295 13.9 298 30
2010-04-23 07:20:00 51°23.648 2°46.038 294.9 13.9 298 30
2010-04-23 07:20:05 51°23.658 2°46.011 295 14 299 30.1
2010-04-23 07:20:09 51°23.665 2°45.989 295.2 14 298 30.1
2010-04-23 07:20:15 51°23.675 2°45.956 294.8 13.9 297 30.2
2010-04-23 07:20:20 51°23.685 2°45.929 295 13.9 299 29.6
2010-04-23 07:20:25 51°23.694 2°45.902 295.3 13.9 298 29.8
2010-04-23 07:20:30 51°23.704 2°45.875 295.3 13.9 298 29.7
2010-04-23 07:20:35 51°23.713 2°45.848 294.7 13.9 299 29.8
2010-04-23 07:20:40 51°23.722 2°45.82 295.1 14 297 29.8
2010-04-23 07:20:45 51°23.73 2°45.793 294.9 14 298 29.6
2010-04-23 07:20:49 51°23.738 2°45.771 295.2 14 299 29.5
2010-04-23 07:20:55 51°23.749 2°45.738 295.1 14 298 29.8
2010-04-23 07:21:00 51°23.758 2°45.71 295.3 14 299 29.9
2010-04-23 07:21:05 51°23.767 2°45.683 295.4 14 298 29.7
2010-04-23 07:21:09 51°23.774 2°45.661 295.2 13.9 299 29.5
2010-04-23 07:21:15 51°23.785 2°45.628 295 13.9 296 29.1
2010-04-23 07:21:20 51°23.794 2°45.601 295 13.9 299 29.3
2010-04-23 07:21:25 51°23.803 2°45.573 294.8 13.9 297 29.6
2010-04-23 07:21:29 51°23.81 2°45.552 295.5 13.9 299 29.8
2010-04-23 07:21:35 51°23.821 2°45.519 295.3 13.8 297 29.8
2010-04-23 07:21:40 51°23.83 2°45.493 295 13.8 298 28.8
2010-04-23 07:21:45 51°23.839 2°45.465 294.8 13.8 298 29.2
2010-04-23 07:21:49 51°23.846 2°45.444 294.9 13.9 299 29.9
2010-04-23 07:21:55 51°23.857 2°45.411 295.4 13.9 297 29.5
2010-04-23 07:22:00 51°23.866 2°45.384 295.3 13.9 299 29.8
2010-04-23 07:22:05 51°23.876 2°45.357 295.7 13.9 298 29.8
2010-04-23 07:22:10 51°23.885 2°45.33 295.3 13.9 298 29.2
2010-04-23 07:22:15 51°23.894 2°45.303 295.2 13.8 298 29.5
2010-04-23 07:22:20 51°23.902 2°45.276 295 13.8 297 29
2010-04-23 07:22:25 51°23.912 2°45.249 295.3 13.8 299 28.9
2010-04-23 07:22:30 51°23.921 2°45.221 295.4 13.8 298 29.3
2010-04-23 07:22:35 51°23.93 2°45.194 295.2 13.8 299 29.2
2010-04-23 07:22:40 51°23.939 2°45.168 295.1 13.8 298 29.1
2010-04-23 07:22:45 51°23.949 2°45.141 295.6 13.8 300 29.4
2010-04-23 07:22:50 51°23.958 2°45.114 295.6 13.7 298 28.3
2010-04-23 07:22:55 51°23.967 2°45.087 295.4 13.8 299 29.1
2010-04-23 07:23:00 51°23.976 2°45.06 295.5 13.8 299 28.7
2010-04-23 07:23:05 51°23.985 2°45.034 295.4 13.8 299 29.2
2010-04-23 07:23:09 51°23.992 2°45.012 295.2 13.8 298 29.2
2010-04-23 07:23:15 51°24.004 2°44.98 295.5 13.8 300 28.8
2010-04-23 07:23:20 51°24.012 2°44.953 295.1 13.8 297 28.9
2010-04-23 07:23:25 51°24.022 2°44.926 295 13.8 299 29.3
2010-04-23 07:23:29 51°24.029 2°44.905 295.1 13.8 298 29.4
2010-04-23 07:23:35 51°24.04 2°44.873 295.1 13.8 299 29.1
2010-04-23 07:23:40 51°24.049 2°44.846 295.3 13.7 299 29.4
2010-04-23 07:23:45 51°24.058 2°44.819 295.1 13.8 298 29.6
2010-04-23 07:23:49 51°24.065 2°44.797 295 13.8 299 29.5
2010-04-23 07:23:55 51°24.076 2°44.765 295 13.8 298 29.3
2010-04-23 07:24:00 51°24.085 2°44.738 295 13.8 299 29.3
2010-04-23 07:24:05 51°24.094 2°44.711 294.9 13.8 297 29.2
2010-04-23 07:24:09 51°24.101 2°44.689 294.9 13.8 299 29.1
2010-04-23 07:24:15 51°24.112 2°44.657 295 13.7 298 29.3
2010-04-23 07:24:20 51°24.121 2°44.63 295.1 13.8 298 29.6
2010-04-23 07:24:25 51°24.13 2°44.603 295.3 13.8 299 29.4
2010-04-23 07:24:29 51°24.138 2°44.582 295.5 13.7 298 29.8
2010-04-23 07:24:35 51°24.148 2°44.55 295 13.7 298 28.7
2010-04-23 07:24:40 51°24.157 2°44.523 294.6 13.7 298 27.6
2010-04-23 07:24:45 51°24.166 2°44.497 295.2 13.3 300 28
2010-04-23 07:24:49 51°24.173 2°44.477 294.8 12.7 298 28.2
2010-04-23 07:24:55 51°24.183 2°44.449 294.8 12 299 28.5
2010-04-23 07:25:00 51°24.19 2°44.427 294.7 11.1 300 28.5
2010-04-23 07:25:05 51°24.197 2°44.407 294.5 10.4 300 25.2
2010-04-23 07:25:09 51°24.203 2°44.391 294.2 9.9 299 25.3
2010-04-23 07:25:15 51°24.211 2°44.369 294.2 9.8 300 25.8
2010-04-23 07:25:20 51°24.217 2°44.351 294.1 9.5 300 26.4
2010-04-23 07:25:25 51°24.224 2°44.334 294.3 9.3 301 27.8
2010-04-23 07:25:29 51°24.229 2°44.32 294.6 9.1 301 26.9
2010-04-23 07:25:35 51°24.237 2°44.299 294.6 9 302 27.6
2010-04-23 07:25:40 51°24.243 2°44.283 294.8 8.7 301 28.3
2010-04-23 07:25:45 51°24.25 2°44.267 295.2 8.4 302 28.2
2010-04-23 07:25:49 51°24.255 2°44.255 295.4 8.2 303 28.4
2010-04-23 07:25:55 51°24.262 2°44.238 295.5 7.9 303 28.8
2010-04-23 07:26:00 51°24.267 2°44.223 295 7.7 303 29.1
2010-04-23 07:26:05 51°24.273 2°44.209 294.8 7.6 303 29.1
2010-04-23 07:26:09 51°24.277 2°44.197 294.9 7.6 304 29.1
2010-04-23 07:26:15 51°24.284 2°44.18 294.9 7.6 303 29.3
2010-04-23 07:26:20 51°24.29 2°44.166 294.9 7.7 303 29
2010-04-23 07:26:25 51°24.296 2°44.151 295.2 7.7 303 28.6
2010-04-23 07:26:29 51°24.301 2°44.14 295.2 7.7 302 28.7
2010-04-23 07:26:35 51°24.308 2°44.123 295.5 7.8 305 27.9
2010-04-23 07:26:40 51°24.314 2°44.109 295.5 7.8 304 26.5
2010-04-23 07:26:45 51°24.32 2°44.094 295.6 7.8 304 24.8
2010-04-23 07:26:49 51°24.325 2°44.083 295.5 7.8 304 24.8
2010-04-23 07:26:55 51°24.332 2°44.066 295.5 7.8 304 25.3
2010-04-23 07:27:00 51°24.339 2°44.052 295.4 7.9 304 26.8
2010-04-23 07:27:05 51°24.345 2°44.037 295.6 7.8 304 27
2010-04-23 07:27:09 51°24.35 2°44.026 295.2 7.9 303 27.8
2010-04-23 07:27:15 51°24.357 2°44.008 294.9 7.9 302 27.8
2010-04-23 07:27:20 51°24.362 2°43.993 294.9 7.9 303 28.1
2010-04-23 07:27:25 51°24.368 2°43.979 294.9 7.7 303 27.7
2010-04-23 07:27:30 51°24.373 2°43.965 294.6 7.4 303 27.6
2010-04-23 07:27:35 51°24.379 2°43.951 294.7 7.2 303 28.4
2010-04-23 07:27:40 51°24.384 2°43.939 295.4 6.9 305 27.9
2010-04-23 07:27:45 51°24.39 2°43.927 295.9 6.6 306 28.3
2010-04-23 07:27:49 51°24.394 2°43.918 296.2 6.4 307 28.2
2010-04-23 07:27:55 51°24.401 2°43.905 297.2 6.2 309 28.1
2010-04-23 07:28:00 51°24.406 2°43.895 297.8 5.9 309 27.8
2010-04-23 07:28:05 51°24.411 2°43.885 298.2 5.7 310 28.2
2010-04-23 07:28:09 51°24.415 2°43.877 298.1 5.5 311 27.7
2010-04-23 07:28:15 51°24.421 2°43.867 298.4 5.4 311 27.9
2010-04-23 07:28:20 51°24.426 2°43.858 298.8 5.2 313 28
2010-04-23 07:28:25 51°24.431 2°43.85 299 5.2 312 28.3
2010-04-23 07:28:29 51°24.435 2°43.842 299.1 5.3 313 28.3
2010-04-23 07:28:35 51°24.441 2°43.832 299.1 5.4 312 28.1
2010-04-23 07:28:40 51°24.446 2°43.823 298.7 5.4 311 28.2
2010-04-23 07:28:45 51°24.451 2°43.814 298.5 5.5 312 28.1
2010-04-23 07:28:49 51°24.455 2°43.806 298.4 5.5 310 28.2
2010-04-23 07:28:55 51°24.461 2°43.795 298.2 5.7 311 28.4
2010-04-23 07:29:00 51°24.466 2°43.785 298.1 5.7 311 28.3
2010-04-23 07:29:05 51°24.471 2°43.776 297.7 5.7 311 28.3
2010-04-23 07:29:09 51°24.475 2°43.768 297.8 5.8 311 28.1
2010-04-23 07:29:15 51°24.482 2°43.757 298.8 5.9 312 28.2
2010-04-23 07:29:20 51°24.488 2°43.748 299.9 5.8 313 28.3
2010-04-23 07:29:25 51°24.493 2°43.739 301.7 5.6 317 28.1
2010-04-23 07:29:29 51°24.498 2°43.732 303.8 5.4 319 28.2
2010-04-23 07:29:35 51°24.504 2°43.723 306.5 5.3 322 27.8
2010-04-23 07:29:40 51°24.51 2°43.717 308.4 5.2 325 27.4
2010-04-23 07:29:45 51°24.516 2°43.71 310.7 5.2 326 27.6
2010-04-23 07:29:49 51°24.521 2°43.705 312.6 5.2 327 27.5
2010-04-23 07:29:55 51°24.528 2°43.698 314 5.1 330 27
2010-04-23 07:30:00 51°24.534 2°43.693 314.6 4.9 331 27.1
2010-04-23 07:30:05 51°24.54 2°43.689 315.3 4.7 332 27.2
2010-04-23 07:30:09 51°24.545 2°43.685 316.5 4.6 335 27.3
2010-04-23 07:30:15 51°24.551 2°43.68 318 4.4 337 27.4
2010-04-23 07:30:20 51°24.557 2°43.677 319.6 4.1 340 27.3
2010-04-23 07:30:25 51°24.562 2°43.675 322.3 3.8 345 27.1
2010-04-23 07:30:29 51°24.565 2°43.674 324.1 3.3 351 27
2010-04-23 07:30:35 51°24.57 2°43.673 327.1 3.1 354 27.2
2010-04-23 07:30:40 51°24.574 2°43.673 331.3 2.8 2 26.9
2010-04-23 07:30:45 51°24.578 2°43.673 336.5 2.6 3 26.9
2010-04-23 07:30:49 51°24.581 2°43.674 340.2 2.6 10 27
2010-04-23 07:30:55 51°24.585 2°43.675 344.1 2.6 11 27
2010-04-23 07:31:00 51°24.589 2°43.677 347.7 2.6 14 27.3
2010-04-23 07:31:05 51°24.592 2°43.678 350.6 2.5 13 26.8
2010-04-23 07:31:09 51°24.595 2°43.679 352.8 2.6 15 27
2010-04-23 07:31:15 51°24.599 2°43.681 354.6 2.6 16 26.7
2010-04-23 07:31:20 51°24.603 2°43.683 355.2 2.6 15 26.7
2010-04-23 07:31:25 51°24.606 2°43.684 355.6 2.6 17 26.5
2010-04-23 07:31:29 51°24.609 2°43.686 355.7 2.5 18 26
2010-04-23 07:31:35 51°24.612 2°43.688 356 2.3 21 25.9
2010-04-23 07:31:40 51°24.615 2°43.689 356.5 2 20 25.6
2010-04-23 07:31:45 51°24.618 2°43.691 357.9 2.1 28 26
2010-04-23 07:31:49 51°24.62 2°43.693 358.6 1.9 24 25.5
2010-04-23 07:31:55 51°24.623 2°43.695 359.1 2.1 23 24.8
2010-04-23 07:32:00 51°24.626 2°43.698 359.3 2.2 26 24.2
2010-04-23 07:32:05 51°24.629 2°43.699 358.3 2.3 18 24.5
2010-04-23 07:32:09 51°24.631 2°43.701 357.1 2.5 23 24
2010-04-23 07:32:15 51°24.635 2°43.703 354.8 2.2 16 23.5
2010-04-23 07:32:20 51°24.638 2°43.705 352.9 2.3 24 24.3
2010-04-23 07:32:25 51°24.64 2°43.706 351.2 2 20 25.3
2010-04-23 07:32:29 51°24.642 2°43.708 349.8 2 26 25.9
2010-04-23 07:32:35 51°24.645 2°43.71 348.6 1.9 26 26
2010-04-23 07:32:40 51°24.648 2°43.712 347.3 1.8 24 26.5
2010-04-23 07:32:45 51°24.65 2°43.713 345.8 1.9 26 27.1
2010-04-23 07:32:49 51°24.652 2°43.715 344.9 1.7 22 27
2010-04-23 07:32:55 51°24.654 2°43.717 343.8 1.9 27 27.2
2010-04-23 07:33:00 51°24.657 2°43.718 342.5 1.7 22 27.1
2010-04-23 07:33:05 51°24.659 2°43.72 341.1 1.8 25 27
2010-04-23 07:33:09 51°24.661 2°43.721 340.1 1.8 22 27.1
2010-04-23 07:33:15 51°24.663 2°43.722 339 1.8 23 26.9
2010-04-23 07:33:20 51°24.665 2°43.724 337.6 1.7 22 26.7
2010-04-23 07:33:25 51°24.667 2°43.725 336.2 1.8 25 26.1
2010-04-23 07:33:29 51°24.669 2°43.726 334.8 1.7 22 25.8
2010-04-23 07:33:35 51°24.672 2°43.728 333.6 1.7 24 25
2010-04-23 07:33:40 51°24.674 2°43.73 332.6 1.7 26 24.7
2010-04-23 07:33:45 51°24.676 2°43.731 331.3 1.7 25 24.6
2010-04-23 07:33:49 51°24.678 2°43.732 330.2 1.7 24 24.7
2010-04-23 07:33:55 51°24.68 2°43.734 329.5 1.7 24 25
2010-04-23 07:34:00 51°24.682 2°43.736 328.8 1.6 23 25.3
2010-04-23 07:34:05 51°24.684 2°43.737 328.2 1.6 25 25.2
2010-04-23 07:34:09 51°24.686 2°43.738 327.7 1.6 24 25.5
2010-04-23 07:34:15 51°24.688 2°43.74 327.2 1.6 27 25.6
2010-04-23 07:34:20 51°24.69 2°43.742 326.8 1.6 25 25
2010-04-23 07:34:25 51°24.692 2°43.743 326.6 1.5 24 25.7
2010-04-23 07:34:29 51°24.694 2°43.744 326.6 1.6 26 25.5
2010-04-23 07:34:35 51°24.696 2°43.746 326.3 1.5 25 25
2010-04-23 07:34:40 51°24.698 2°43.747 326.3 1.6 25 25.2
2010-04-23 07:34:45 51°24.7 2°43.749 326.3 1.5 25 25.3
2010-04-23 07:34:49 51°24.702 2°43.75 326.5 1.6 28 25
2010-04-23 07:34:55 51°24.704 2°43.751 326.7 1.5 28 24.2
2010-04-23 07:35:00 51°24.706 2°43.753 326.6 1.5 27 23.9
2010-04-23 07:35:05 51°24.708 2°43.754 326.7 1.5 26 24
2010-04-23 07:35:09 51°24.709 2°43.756 326.9 1.5 26 24.2
2010-04-23 07:35:15 51°24.712 2°43.758 327 1.6 28 23.7
2010-04-23 07:35:20 51°24.714 2°43.759 327 1.5 26 23.2
2010-04-23 07:35:25 51°24.715 2°43.761 326.9 1.5 24 23
2010-04-23 07:35:29 51°24.717 2°43.762 327.3 1.5 27 22.9
2010-04-23 07:35:35 51°24.719 2°43.764 327.4 1.5 30 22.7
2010-04-23 07:35:40 51°24.721 2°43.765 327.4 1.5 30 23
2010-04-23 07:35:45 51°24.723 2°43.767 327.7 1.5 36 23.8
2010-04-23 07:35:49 51°24.724 2°43.769 327.7 1.2 40 24.7
2010-04-23 07:35:55 51°24.725 2°43.771 327.7 1.4 49 25.4
2010-04-23 07:36:00 51°24.726 2°43.773 327.4 1.2 57 25.9
2010-04-23 07:36:05 51°24.727 2°43.776 327.2 1.3 64 25.8
2010-04-23 07:36:09 51°24.727 2°43.778 326.7 1.3 72 26.2
2010-04-23 07:36:15 51°24.728 2°43.782 326 1.5 83 26.4
2010-04-23 07:36:20 51°24.728 2°43.785 325.1 1.6 93 26.4
2010-04-23 07:36:25 51°24.727 2°43.789 323.8 1.8 99 26.9
2010-04-23 07:36:30 51°24.726 2°43.794 322.2 2.2 103 -999
2010-04-23 07:36:37 51°24.726 2°43.802 319.6 2.4 105 27.2
2010-04-23 07:36:42 51°24.725 2°43.807 317.3 2.7 105 -999
2010-04-23 07:36:48 51°24.723 2°43.814 315.1 2.7 100 -999
2010-04-23 07:36:53 51°24.723 2°43.82 312.9 2.6 101 -999
2010-04-23 07:36:58 51°24.723 2°43.826 311.2 2.6 96 -999
2010-04-23 07:37:04 51°24.722 2°43.833 309.9 2.6 95 -999
2010-04-23 07:37:09 51°24.722 2°43.838 308.6 2.2 89 -999
2010-04-23 07:37:13 51°24.722 2°43.841 306.6 1.7 82 -999
2010-04-23 07:37:18 51°24.723 2°43.845 304.9 1.5 65 27.2
2010-04-23 07:37:23 51°24.725 2°43.847 301.9 1.3 47 26.4
2010-04-23 07:37:28 51°24.726 2°43.848 298 1.1 27 26.5
2010-04-23 07:37:33 51°24.728 2°43.849 294 1.2 12 26.8
2010-04-23 07:37:38 51°24.729 2°43.849 287.9 1.1 1 26.8
2010-04-23 07:37:43 51°24.73 2°43.848 281.7 1 354 26.7
2010-04-23 07:37:48 51°24.732 2°43.848 275.5 1 342 -999
2010-04-23 07:37:53 51°24.732 2°43.847 269.2 0.9 330 -999
2010-04-23 07:37:59 51°24.734 2°43.845 262.6 1 324 -999
2010-04-23 07:38:03 51°24.734 2°43.844 257.7 0.7 301 -999
2010-04-23 07:38:08 51°24.735 2°43.842 253.3 0.9 295 26.5
2010-04-23 07:38:13 51°24.735 2°43.84 250.1 0.9 284 26.5
2010-04-23 07:38:18 51°24.735 2°43.838 248.5 1.1 271 26.5
2010-04-23 07:38:23 51°24.735 2°43.835 245.3 1.2 264 26.8
2010-04-23 07:38:28 51°24.735 2°43.832 242.9 1.4 260 26.9
2010-04-23 07:38:33 51°24.734 2°43.829 240.8 1.5 248 26.6
2010-04-23 07:38:38 51°24.733 2°43.825 238.9 1.7 250 26.7
2010-04-23 07:38:43 51°24.732 2°43.822 237.4 1.8 242 26.9
2010-04-23 07:38:48 51°24.731 2°43.818 235.6 1.9 239 26.9
2010-04-23 07:38:53 51°24.729 2°43.814 233.2 2.1 231 27
2010-04-23 07:38:57 51°24.727 2°43.811 230.3 2.2 228 27.4
2010-04-23 07:39:02 51°24.725 2°43.808 227.1 2.3 221 27.2
2010-04-23 07:39:08 51°24.722 2°43.804 224.1 2.5 221 27.5
2010-04-23 07:39:12 51°24.719 2°43.801 221.9 2.6 219 27.1
2010-04-23 07:39:17 51°24.716 2°43.797 221.1 2.7 217 26.9
2010-04-23 07:39:22 51°24.713 2°43.793 220.7 2.9 220 27.2
2010-04-23 07:39:27 51°24.71 2°43.789 220.8 2.9 216 26.4
2010-04-23 07:39:32 51°24.707 2°43.785 220.7 2.8 219 26.2
2010-04-23 07:39:37 51°24.704 2°43.781 221.3 2.7 220 25
2010-04-23 07:39:42 51°24.701 2°43.778 222.7 2.6 222 23.9
2010-04-23 07:39:47 51°24.699 2°43.774 224.9 2.4 228 23.7
2010-04-23 07:39:52 51°24.697 2°43.77 227.5 2.3 231 23.3
2010-04-23 07:39:57 51°24.695 2°43.766 230.7 2.2 237 23.7
2010-04-23 07:40:01 51°24.694 2°43.763 234.5 2 241 24
2010-04-23 07:40:07 51°24.693 2°43.758 237.7 2 245 24.6
2010-04-23 07:40:12 51°24.692 2°43.754 240.3 1.9 250 24.5
2010-04-23 07:40:17 51°24.691 2°43.75 241.5 1.8 246 25.2
2010-04-23 07:40:21 51°24.69 2°43.747 242.3 1.7 251 24.9
2010-04-23 07:40:26 51°24.689 2°43.744 242.5 1.6 251 25
2010-04-23 07:40:31 51°24.689 2°43.741 242.3 1.5 250 25.5
2010-04-23 07:40:37 51°24.688 2°43.737 241.6 1.4 248 25.5
2010-04-23 07:40:41 51°24.687 2°43.735 240.2 1.3 247 25.7
2010-04-23 07:40:46 51°24.686 2°43.733 238.4 1.3 244 25.4
2010-04-23 07:40:51 51°24.686 2°43.731 236.2 1.2 237 25.7
2010-04-23 07:40:56 51°24.684 2°43.728 233.5 1.1 232 25.7
2010-04-23 07:41:01 51°24.683 2°43.727 230.3 1.1 223 25.9
2010-04-23 07:41:06 51°24.682 2°43.725 226.5 1.2 223 25.6
2010-04-23 07:41:11 51°24.681 2°43.723 223.2 1.2 213 24.3
2010-04-23 07:41:16 51°24.679 2°43.722 221.2 1.2 212 23.5
2010-04-23 07:41:21 51°24.678 2°43.72 220.7 1.1 213 23.4
2010-04-23 07:41:25 51°24.677 2°43.719 221.6 1 220 23.2
2010-04-23 07:41:30 51°24.676 2°43.718 222.9 1 215 23.2
2010-04-23 07:41:35 51°24.675 2°43.716 224.1 0.9 222 23
2010-04-23 07:41:41 51°24.674 2°43.715 225.7 0.9 220 22.8
2010-04-23 07:41:45 51°24.673 2°43.714 227 0.8 232 22.6
2010-04-23 07:41:50 51°24.673 2°43.713 228.7 0.8 227 23.1
2010-04-23 07:41:55 51°24.672 2°43.711 230.6 0.7 234 23.1
2010-04-23 07:42:00 51°24.672 2°43.71 232.2 0.7 243 23.3
2010-04-23 07:42:05 51°24.671 2°43.708 233.9 0.7 240 23.4
2010-04-23 07:42:10 51°24.671 2°43.707 235.8 0.6 253 23.5
2010-04-23 07:42:15 51°24.671 2°43.705 237.5 0.6 255 23.9
2010-04-23 07:42:20 51°24.67 2°43.704 239.5 0.6 261 24.3
2010-04-23 07:42:25 51°24.671 2°43.703 241.5 0.6 275 24.2
2010-04-23 07:42:29 51°24.67 2°43.701 243.4 0.5 272 24.7
2010-04-23 07:42:35 51°24.671 2°43.7 245.5 0.5 289 24.6
2010-04-23 07:42:40 51°24.671 2°43.699 247.1 0.6 312 24.7
2010-04-23 07:42:45 51°24.671 2°43.699 247.8 0.2 314 25.3
2010-04-23 07:42:49 51°24.672 2°43.698 248.2 0.6 333 25.1
2010-04-23 07:42:55 51°24.672 2°43.698 247.9 0.3 328 25.1
2010-04-23 07:43:00 51°24.673 2°43.698 248 0.6 346 25.2
2010-04-23 07:43:05 51°24.674 2°43.698 247.9 0.4 2 25.3
2010-04-23 07:43:09 51°24.674 2°43.698 247.6 0.5 355 25.4
2010-04-23 07:43:15 51°24.675 2°43.698 246.9 0.5 359 25.3
2010-04-23 07:43:20 51°24.676 2°43.698 246.2 0.4 6 25.7
2010-04-23 07:43:25 51°24.677 2°43.698 245.7 0.5 2 25.8
2010-04-23 07:43:29 51°24.677 2°43.698 245 0.5 10 25.8
2010-04-23 07:43:35 51°24.678 2°43.698 244.9 0.5 7 25.7
2010-04-23 07:43:40 51°24.678 2°43.698 244.2 0.5 10 25.7
2010-04-23 07:43:45 51°24.679 2°43.699 243.8 0.4 21 26.1
2010-04-23 07:43:49 51°24.68 2°43.699 243.5 0.5 7 26
2010-04-23 07:43:55 51°24.681 2°43.699 243.3 0.5 15 26.1
2010-04-23 07:44:00 51°24.681 2°43.7 242.7 0.6 12 26
2010-04-23 07:44:05 51°24.682 2°43.7 242.4 0.5 30 26.2
2010-04-23 07:44:09 51°24.682 2°43.701 242.2 0.5 16 26.2
2010-04-23 07:44:15 51°24.683 2°43.701 241.7 0.5 22 26.2
2010-04-23 07:44:20 51°24.684 2°43.702 241.5 0.5 32 26.5
2010-04-23 07:44:25 51°24.684 2°43.702 240.9 0.5 25 26.6
2010-04-23 07:44:29 51°24.685 2°43.703 240.3 0.5 37 26.7
2010-04-23 07:44:35 51°24.686 2°43.703 239.9 0.6 17 26.4
2010-04-23 07:44:40 51°24.686 2°43.704 239.6 0.5 39 26.6
2010-04-23 07:44:45 51°24.687 2°43.704 239.1 0.6 31 26.7
2010-04-23 07:44:49 51°24.688 2°43.705 238.8 0.6 23 26.4
2010-04-23 07:44:55 51°24.689 2°43.706 238.3 0.5 33 26.4
2010-04-23 07:45:00 51°24.689 2°43.707 238.2 0.6 23 26.3
2010-04-23 07:45:05 51°24.69 2°43.708 237.8 0.5 44 26.7
2010-04-23 07:45:09 51°24.69 2°43.708 237.5 0.6 23 26.7
2010-04-23 07:45:15 51°24.691 2°43.709 236.9 0.6 39 26.7
2010-04-23 07:45:20 51°24.692 2°43.71 236.9 0.6 29 26.5
2010-04-23 07:45:25 51°24.692 2°43.711 236.6 0.5 36 26.2
2010-04-23 07:45:29 51°24.693 2°43.711 236.7 0.5 29 26.2
2010-04-23 07:45:35 51°24.694 2°43.712 236.7 0.5 21 26.2
2010-04-23 07:45:40 51°24.694 2°43.712 236.7 0.4 31 26.4
2010-04-23 07:45:45 51°24.695 2°43.712 236.3 0.3 14 26.5
2010-04-23 07:45:49 51°24.695 2°43.712 235.7 0.2 32 26.6
2010-04-23 07:45:54 51°24.695 2°43.712 234.6 0.2 359 26.6
2010-04-23 07:46:00 51°24.695 2°43.712 233.1 -999 69 26.8
2010-04-23 07:46:05 51°24.696 2°43.712 231.9 0.2 322 26.5
2010-04-23 07:46:09 51°24.696 2°43.712 230.8 0.1 121 26.7
2010-04-23 07:46:15 51°24.696 2°43.712 229.5 -999 115 26.8
2010-04-23 07:46:20 51°24.696 2°43.712 227.5 0.1 176 26.6
2010-04-23 07:46:25 51°24.695 2°43.712 224.7 0.1 200 26.6
2010-04-23 07:46:29 51°24.695 2°43.712 222.3 0.3 194 26.4
2010-04-23 07:46:35 51°24.694 2°43.712 219.3 0.4 182 26.4
2010-04-23 07:46:40 51°24.694 2°43.712 217.8 0.4 201 26.2
2010-04-23 07:46:45 51°24.693 2°43.712 215.7 0.6 175 26.1
2010-04-23 07:46:49 51°24.692 2°43.712 214.9 0.6 189 26.3